PWSweather.com
Personal Weather Stations
Station Observations
LEONMETEO
LeonES 24008

LeonES 24008

Lat: 42.6055559, Lon: -5.5752249

Elevation: 2690

Station Type: La Crosse WS3600

Latest ConditionsUpdated 4:17:05 PM GMT+01:01 Thursday, Jul 24, 2014
Currently Today's Max Today's Min Today's Average
Temperature 90.5°F32.5°C 90.5°F32.5°C 62.4°F16.9°C 72.4°F22.4°C
Dew Point 62.0°F16.7°C 62.0°F16.7°C 50.3°F10.2°C 55.4°F13.0°C
Winds - N16091.8 kmh N Calm Calm - Calm Calm
Wind Gusts -- -- - -
Humidity 39% 67% 39% 56%
Pressure 29.66 in1004.4 mb 29.75 in1007.5 mb 29.66 in1004.4 mb -
Hour Temp Dew Point Humidity Winds Wind Gusts Pressure Precip Precip Rate Daily Precip Total
04:17 PM 90.5°F32.5°C 62.0°F16.7°C 39% - N16091.8 kmh N -- 29.66 in1004.4 mb 0.00 in0.0 mm 0.00 in/hr0.0 mm/hr 0.00 in0.0 mm
04:12 PM 90.1°F32.3°C 61.7°F16.5°C 39% - N16091.8 kmh N -- 29.66 in1004.4 mb 0.00 in0.0 mm 0.00 in/hr0.0 mm/hr 0.00 in0.0 mm
04:07 PM 89.6°F32.0°C 61.2°F16.2°C 39% - N16091.8 kmh N -- 29.67 in1004.7 mb 0.00 in0.0 mm 0.00 in/hr0.0 mm/hr 0.00 in0.0 mm
04:02 PM 89.2°F31.8°C 60.9°F16.1°C 39% - N16091.8 kmh N -- 29.66 in1004.4 mb 0.00 in0.0 mm 0.00 in/hr0.0 mm/hr 0.00 in0.0 mm
03:56 PM 88.8°F31.6°C 61.4°F16.3°C 39% - N16091.8 kmh N -- 29.66 in1004.4 mb 0.00 in0.0 mm 0.00 in/hr0.0 mm/hr 0.00 in0.0 mm
03:51 PM 88.3°F31.3°C 61.0°F16.1°C 40% - N16091.8 kmh N -- 29.66 in1004.4 mb 0.00 in0.0 mm 0.00 in/hr0.0 mm/hr 0.00 in0.0 mm
03:46 PM 87.9°F31.1°C 60.7°F15.9°C 40% - N16091.8 kmh N -- 29.66 in1004.4 mb 0.00 in0.0 mm 0.00 in/hr0.0 mm/hr 0.00 in0.0 mm
03:41 PM 87.4°F30.8°C 60.2°F15.7°C 40% - N16091.8 kmh N -- 29.66 in1004.4 mb 0.00 in0.0 mm 0.00 in/hr0.0 mm/hr 0.00 in0.0 mm
03:36 PM 87.6°F30.9°C 60.4°F15.8°C 40% - N16091.8 kmh N -- 29.67 in1004.7 mb 0.00 in0.0 mm 0.00 in/hr0.0 mm/hr 0.00 in0.0 mm
03:31 PM 87.9°F31.1°C 60.7°F15.9°C 40% - N16091.8 kmh N -- 29.67 in1004.7 mb 0.00 in0.0 mm 0.00 in/hr0.0 mm/hr 0.00 in0.0 mm
03:26 PM 88.1°F31.2°C 60.9°F16.1°C 40% - N16091.8 kmh N -- 29.67 in1004.7 mb 0.00 in0.0 mm 0.00 in/hr0.0 mm/hr 0.00 in0.0 mm
03:21 PM 88.3°F31.3°C 61.0°F16.1°C 40% - N16091.8 kmh N -- 29.67 in1004.7 mb 0.00 in0.0 mm 0.00 in/hr0.0 mm/hr 0.00 in0.0 mm
03:16 PM 88.3°F31.3°C 61.0°F16.1°C 40% - N16091.8 kmh N -- 29.67 in1004.7 mb 0.00 in0.0 mm 0.00 in/hr0.0 mm/hr 0.00 in0.0 mm
03:11 PM 88.3°F31.3°C 61.0°F16.1°C 40% - N16091.8 kmh N -- 29.67 in1004.7 mb 0.00 in0.0 mm 0.00 in/hr0.0 mm/hr 0.00 in0.0 mm
03:06 PM 88.3°F31.3°C 61.0°F16.1°C 40% - N16091.8 kmh N -- 29.67 in1004.7 mb 0.00 in0.0 mm 0.00 in/hr0.0 mm/hr 0.00 in0.0 mm
03:01 PM 87.9°F31.1°C 60.7°F15.9°C 40% - N16091.8 kmh N -- 29.67 in1004.7 mb 0.00 in0.0 mm 0.00 in/hr0.0 mm/hr 0.00 in0.0 mm
02:56 PM 87.8°F31.0°C 60.6°F15.9°C 40% - N16091.8 kmh N -- 29.67 in1004.7 mb 0.00 in0.0 mm 0.00 in/hr0.0 mm/hr 0.00 in0.0 mm
02:51 PM 87.6°F30.9°C 60.4°F15.8°C 40% - N16091.8 kmh N -- 29.67 in1004.7 mb 0.00 in0.0 mm 0.00 in/hr0.0 mm/hr 0.00 in0.0 mm
02:46 PM 87.2°F30.7°C 60.7°F15.9°C 41% - N16091.8 kmh N -- 29.67 in1004.7 mb 0.00 in0.0 mm 0.00 in/hr0.0 mm/hr 0.00 in0.0 mm
02:41 PM 87.0°F30.6°C 61.2°F16.2°C 41% - N16091.8 kmh N -- 29.67 in1004.7 mb 0.00 in0.0 mm 0.00 in/hr0.0 mm/hr 0.00 in0.0 mm
02:36 PM 86.7°F30.4°C 60.9°F16.1°C 42% - N16091.8 kmh N -- 29.68 in1005.1 mb 0.00 in0.0 mm 0.00 in/hr0.0 mm/hr 0.00 in0.0 mm
02:31 PM 86.5°F30.3°C 60.7°F15.9°C 42% - N16091.8 kmh N -- 29.68 in1005.1 mb 0.00 in0.0 mm 0.00 in/hr0.0 mm/hr 0.00 in0.0 mm
02:26 PM 86.1°F30.1°C 60.4°F15.8°C 42% - N16091.8 kmh N -- 29.68 in1005.1 mb 0.00 in0.0 mm 0.00 in/hr0.0 mm/hr 0.00 in0.0 mm
02:21 PM 85.8°F29.9°C 60.1°F15.6°C 42% - N16091.8 kmh N -- 29.68 in1005.1 mb 0.00 in0.0 mm 0.00 in/hr0.0 mm/hr 0.00 in0.0 mm
02:16 PM 85.6°F29.8°C 60.5°F15.8°C 43% - N16091.8 kmh N -- 29.69 in1005.4 mb 0.00 in0.0 mm 0.00 in/hr0.0 mm/hr 0.00 in0.0 mm
02:11 PM 85.6°F29.8°C 60.5°F15.8°C 43% - N16091.8 kmh N -- 29.69 in1005.4 mb 0.00 in0.0 mm 0.00 in/hr0.0 mm/hr 0.00 in0.0 mm
02:06 PM 85.6°F29.8°C 60.5°F15.8°C 43% - N16091.8 kmh N -- 29.69 in1005.4 mb 0.00 in0.0 mm 0.00 in/hr0.0 mm/hr 0.00 in0.0 mm
02:01 PM 85.2°F29.6°C 60.2°F15.7°C 43% - N16091.8 kmh N -- 29.69 in1005.4 mb 0.00 in0.0 mm 0.00 in/hr0.0 mm/hr 0.00 in0.0 mm
01:56 PM 85.1°F29.5°C 60.0°F15.6°C 43% - N16091.8 kmh N -- 29.69 in1005.4 mb 0.00 in0.0 mm 0.00 in/hr0.0 mm/hr 0.00 in0.0 mm
01:51 PM 84.5°F29.2°C 60.2°F15.7°C 44% - N16091.8 kmh N -- 29.69 in1005.4 mb 0.00 in0.0 mm 0.00 in/hr0.0 mm/hr 0.00 in0.0 mm
01:46 PM 84.3°F29.1°C 60.0°F15.6°C 44% - N16091.8 kmh N -- 29.69 in1005.4 mb 0.00 in0.0 mm 0.00 in/hr0.0 mm/hr 0.00 in0.0 mm
01:41 PM 84.0°F28.9°C 60.3°F15.7°C 45% - N16091.8 kmh N -- 29.69 in1005.4 mb 0.00 in0.0 mm 0.00 in/hr0.0 mm/hr 0.00 in0.0 mm
01:36 PM 83.8°F28.8°C 60.8°F16.0°C 45% - N16091.8 kmh N -- 29.69 in1005.4 mb 0.00 in0.0 mm 0.00 in/hr0.0 mm/hr 0.00 in0.0 mm
01:31 PM 83.4°F28.6°C 60.4°F15.8°C 46% - N16091.8 kmh N -- 29.69 in1005.4 mb 0.00 in0.0 mm 0.00 in/hr0.0 mm/hr 0.00 in0.0 mm
01:26 PM 83.1°F28.4°C 60.1°F15.6°C 46% - N16091.8 kmh N -- 29.69 in1005.4 mb 0.00 in0.0 mm 0.00 in/hr0.0 mm/hr 0.00 in0.0 mm
01:21 PM 82.7°F28.2°C 59.7°F15.4°C 46% - N16091.8 kmh N -- 29.69 in1005.4 mb 0.00 in0.0 mm 0.00 in/hr0.0 mm/hr 0.00 in0.0 mm
01:16 PM 82.5°F28.1°C 60.2°F15.7°C 46% - N16091.8 kmh N -- 29.69 in1005.4 mb 0.00 in0.0 mm 0.00 in/hr0.0 mm/hr 0.00 in0.0 mm
01:11 PM 82.4°F28.0°C 60.0°F15.6°C 47% - N16091.8 kmh N -- 29.70 in1005.8 mb 0.00 in0.0 mm 0.00 in/hr0.0 mm/hr 0.00 in0.0 mm
01:06 PM 82.0°F27.8°C 59.7°F15.4°C 47% - N16091.8 kmh N -- 29.70 in1005.8 mb 0.00 in0.0 mm 0.00 in/hr0.0 mm/hr 0.00 in0.0 mm
01:01 PM 81.6°F27.6°C 60.0°F15.6°C 48% - N16091.8 kmh N -- 29.70 in1005.8 mb 0.00 in0.0 mm 0.00 in/hr0.0 mm/hr 0.00 in0.0 mm
12:55 PM 81.3°F27.4°C 59.6°F15.3°C 48% - N16091.8 kmh N -- 29.70 in1005.8 mb 0.00 in0.0 mm 0.00 in/hr0.0 mm/hr 0.00 in0.0 mm
12:50 PM 80.9°F27.2°C 59.9°F15.5°C 49% - N16091.8 kmh N -- 29.70 in1005.8 mb 0.00 in0.0 mm 0.00 in/hr0.0 mm/hr 0.00 in0.0 mm
12:45 PM 80.4°F26.9°C 60.1°F15.6°C 49% - N16091.8 kmh N -- 29.70 in1005.8 mb 0.00 in0.0 mm 0.00 in/hr0.0 mm/hr 0.00 in0.0 mm
12:40 PM 80.2°F26.8°C 59.9°F15.5°C 50% - N16091.8 kmh N -- 29.70 in1005.8 mb 0.00 in0.0 mm 0.00 in/hr0.0 mm/hr 0.00 in0.0 mm
12:35 PM 79.8°F26.6°C 59.6°F15.3°C 50% - N16091.8 kmh N -- 29.71 in1006.1 mb 0.00 in0.0 mm 0.00 in/hr0.0 mm/hr 0.00 in0.0 mm
12:30 PM 79.5°F26.4°C 59.8°F15.4°C 51% - N16091.8 kmh N -- 29.71 in1006.1 mb 0.00 in0.0 mm 0.00 in/hr0.0 mm/hr 0.00 in0.0 mm
12:25 PM 79.3°F26.3°C 60.1°F15.6°C 51% - N16091.8 kmh N -- 29.71 in1006.1 mb 0.00 in0.0 mm 0.00 in/hr0.0 mm/hr 0.00 in0.0 mm
12:20 PM 78.8°F26.0°C 59.6°F15.3°C 52% - N16091.8 kmh N -- 29.71 in1006.1 mb 0.00 in0.0 mm 0.00 in/hr0.0 mm/hr 0.00 in0.0 mm
12:15 PM 78.6°F25.9°C 60.0°F15.6°C 53% - N16091.8 kmh N -- 29.71 in1006.1 mb 0.00 in0.0 mm 0.00 in/hr0.0 mm/hr 0.00 in0.0 mm
12:10 PM 78.4°F25.8°C 59.8°F15.4°C 53% - N16091.8 kmh N -- 29.71 in1006.1 mb 0.00 in0.0 mm 0.00 in/hr0.0 mm/hr 0.00 in0.0 mm
12:05 PM 77.9°F25.5°C 59.8°F15.4°C 54% - N16091.8 kmh N -- 29.72 in1006.4 mb 0.00 in0.0 mm 0.00 in/hr0.0 mm/hr 0.00 in0.0 mm
12:00 PM 77.7°F25.4°C 60.2°F15.7°C 54% - N16091.8 kmh N -- 29.71 in1006.1 mb 0.00 in0.0 mm 0.00 in/hr0.0 mm/hr 0.00 in0.0 mm
11:55 AM 77.3°F25.2°C 59.8°F15.4°C 55% - N16091.8 kmh N -- 29.72 in1006.4 mb 0.00 in0.0 mm 0.00 in/hr0.0 mm/hr 0.00 in0.0 mm
11:50 AM 77.1°F25.1°C 59.7°F15.4°C 55% - N16091.8 kmh N -- 29.72 in1006.4 mb 0.00 in0.0 mm 0.00 in/hr0.0 mm/hr 0.00 in0.0 mm
11:45 AM 76.8°F24.9°C 59.3°F15.2°C 55% - N16091.8 kmh N -- 29.72 in1006.4 mb 0.00 in0.0 mm 0.00 in/hr0.0 mm/hr 0.00 in0.0 mm
11:40 AM 76.8°F24.9°C 59.3°F15.2°C 55% - N16091.8 kmh N -- 29.72 in1006.4 mb 0.00 in0.0 mm 0.00 in/hr0.0 mm/hr 0.00 in0.0 mm
11:35 AM 76.6°F24.8°C 59.2°F15.1°C 55% - N16091.8 kmh N -- 29.72 in1006.4 mb 0.00 in0.0 mm 0.00 in/hr0.0 mm/hr 0.00 in0.0 mm
11:30 AM 76.6°F24.8°C 59.2°F15.1°C 55% - N16091.8 kmh N -- 29.72 in1006.4 mb 0.00 in0.0 mm 0.00 in/hr0.0 mm/hr 0.00 in0.0 mm
11:25 AM 76.2°F24.6°C 59.3°F15.2°C 56% - N16091.8 kmh N -- 29.72 in1006.4 mb 0.00 in0.0 mm 0.00 in/hr0.0 mm/hr 0.00 in0.0 mm
11:20 AM 76.2°F24.6°C 59.3°F15.2°C 56% - N16091.8 kmh N -- 29.73 in1006.8 mb 0.00 in0.0 mm 0.00 in/hr0.0 mm/hr 0.00 in0.0 mm
11:15 AM 75.9°F24.4°C 59.0°F15.0°C 56% - N16091.8 kmh N -- 29.73 in1006.8 mb 0.00 in0.0 mm 0.00 in/hr0.0 mm/hr 0.00 in0.0 mm
11:10 AM 75.7°F24.3°C 58.9°F14.9°C 56% - N16091.8 kmh N -- 29.73 in1006.8 mb 0.00 in0.0 mm 0.00 in/hr0.0 mm/hr 0.00 in0.0 mm
11:05 AM 75.3°F24.1°C 59.0°F15.0°C 57% - N16091.8 kmh N -- 29.73 in1006.8 mb 0.00 in0.0 mm 0.00 in/hr0.0 mm/hr 0.00 in0.0 mm
11:00 AM 75.0°F23.9°C 58.7°F14.8°C 57% - N16091.8 kmh N -- 29.73 in1006.8 mb 0.00 in0.0 mm 0.00 in/hr0.0 mm/hr 0.00 in0.0 mm
10:55 AM 74.4°F23.6°C 58.7°F14.8°C 57% - N16091.8 kmh N -- 29.73 in1006.8 mb 0.00 in0.0 mm 0.00 in/hr0.0 mm/hr 0.00 in0.0 mm
10:50 AM 74.3°F23.5°C 58.5°F14.7°C 58% - N16091.8 kmh N -- 29.73 in1006.8 mb 0.00 in0.0 mm 0.00 in/hr0.0 mm/hr 0.00 in0.0 mm
10:45 AM 73.9°F23.3°C 58.1°F14.5°C 58% - N16091.8 kmh N -- 29.73 in1006.8 mb 0.00 in0.0 mm 0.00 in/hr0.0 mm/hr 0.00 in0.0 mm
10:39 AM 73.7°F23.2°C 57.9°F14.4°C 58% - N16091.8 kmh N -- 29.73 in1006.8 mb 0.00 in0.0 mm 0.00 in/hr0.0 mm/hr 0.00 in0.0 mm
10:34 AM 73.2°F22.9°C 57.4°F14.1°C 58% - N16091.8 kmh N -- 29.73 in1006.8 mb 0.00 in0.0 mm 0.00 in/hr0.0 mm/hr 0.00 in0.0 mm
10:29 AM 73.0°F22.8°C 57.8°F14.3°C 59% - N16091.8 kmh N -- 29.73 in1006.8 mb 0.00 in0.0 mm 0.00 in/hr0.0 mm/hr 0.00 in0.0 mm
10:24 AM 72.6°F22.6°C 57.4°F14.1°C 59% - N16091.8 kmh N -- 29.73 in1006.8 mb 0.00 in0.0 mm 0.00 in/hr0.0 mm/hr 0.00 in0.0 mm
10:19 AM 72.5°F22.5°C 57.8°F14.3°C 60% - N16091.8 kmh N -- 29.73 in1006.8 mb 0.00 in0.0 mm 0.00 in/hr0.0 mm/hr 0.00 in0.0 mm
10:14 AM 72.3°F22.4°C 57.6°F14.2°C 60% - N16091.8 kmh N -- 29.73 in1006.8 mb 0.00 in0.0 mm 0.00 in/hr0.0 mm/hr 0.00 in0.0 mm
10:09 AM 71.7°F22.1°C 57.6°F14.2°C 61% - N16091.8 kmh N -- 29.73 in1006.8 mb 0.00 in0.0 mm 0.00 in/hr0.0 mm/hr 0.00 in0.0 mm
10:04 AM 71.6°F22.0°C 57.4°F14.1°C 61% - N16091.8 kmh N -- 29.73 in1006.8 mb 0.00 in0.0 mm 0.00 in/hr0.0 mm/hr 0.00 in0.0 mm
09:59 AM 71.2°F21.8°C 57.1°F13.9°C 61% - N16091.8 kmh N -- 29.73 in1006.8 mb 0.00 in0.0 mm 0.00 in/hr0.0 mm/hr 0.00 in0.0 mm
09:54 AM 70.8°F21.6°C 57.2°F14.0°C 62% - N16091.8 kmh N -- 29.73 in1006.8 mb 0.00 in0.0 mm 0.00 in/hr0.0 mm/hr 0.00 in0.0 mm
09:49 AM 70.5°F21.4°C 57.3°F14.1°C 63% - N16091.8 kmh N -- 29.74 in1007.1 mb 0.00 in0.0 mm 0.00 in/hr0.0 mm/hr 0.00 in0.0 mm
09:44 AM 70.3°F21.3°C 57.5°F14.2°C 64% - N16091.8 kmh N -- 29.73 in1006.8 mb 0.00 in0.0 mm 0.00 in/hr0.0 mm/hr 0.00 in0.0 mm
09:39 AM 69.8°F21.0°C 57.0°F13.9°C 64% - N16091.8 kmh N -- 29.74 in1007.1 mb 0.00 in0.0 mm 0.00 in/hr0.0 mm/hr 0.00 in0.0 mm
09:34 AM 69.4°F20.8°C 57.1°F13.9°C 65% - N16091.8 kmh N -- 29.74 in1007.1 mb 0.00 in0.0 mm 0.00 in/hr0.0 mm/hr 0.00 in0.0 mm
09:29 AM 69.0°F20.6°C 56.7°F13.7°C 65% - N16091.8 kmh N -- 29.74 in1007.1 mb 0.00 in0.0 mm 0.00 in/hr0.0 mm/hr 0.00 in0.0 mm
09:24 AM 68.5°F20.3°C 56.7°F13.7°C 66% - N16091.8 kmh N -- 29.74 in1007.1 mb 0.00 in0.0 mm 0.00 in/hr0.0 mm/hr 0.00 in0.0 mm
09:19 AM 68.1°F20.1°C 56.3°F13.5°C 66% - N16091.8 kmh N -- 29.74 in1007.1 mb 0.00 in0.0 mm 0.00 in/hr0.0 mm/hr 0.00 in0.0 mm
09:14 AM 67.8°F19.9°C 56.0°F13.3°C 66% - N16091.8 kmh N -- 29.74 in1007.1 mb 0.00 in0.0 mm 0.00 in/hr0.0 mm/hr 0.00 in0.0 mm
09:09 AM 67.2°F19.6°C 55.9°F13.3°C 67% - N16091.8 kmh N -- 29.74 in1007.1 mb 0.00 in0.0 mm 0.00 in/hr0.0 mm/hr 0.00 in0.0 mm
09:04 AM 66.9°F19.4°C 55.5°F13.1°C 67% - N16091.8 kmh N -- 29.74 in1007.1 mb 0.00 in0.0 mm 0.00 in/hr0.0 mm/hr 0.00 in0.0 mm
08:59 AM 66.7°F19.3°C 55.4°F13.0°C 67% - N16091.8 kmh N -- 29.74 in1007.1 mb 0.00 in0.0 mm 0.00 in/hr0.0 mm/hr 0.00 in0.0 mm
08:54 AM 66.3°F19.1°C 55.0°F12.8°C 67% - N16091.8 kmh N -- 29.74 in1007.1 mb 0.00 in0.0 mm 0.00 in/hr0.0 mm/hr 0.00 in0.0 mm
08:49 AM 66.0°F18.9°C 54.7°F12.6°C 67% - N16091.8 kmh N -- 29.74 in1007.1 mb 0.00 in0.0 mm 0.00 in/hr0.0 mm/hr 0.00 in0.0 mm
08:44 AM 65.8°F18.8°C 54.5°F12.5°C 67% - N16091.8 kmh N -- 29.74 in1007.1 mb 0.00 in0.0 mm 0.00 in/hr0.0 mm/hr 0.00 in0.0 mm
08:39 AM 65.4°F18.6°C 54.2°F12.3°C 67% - N16091.8 kmh N -- 29.75 in1007.5 mb 0.00 in0.0 mm 0.00 in/hr0.0 mm/hr 0.00 in0.0 mm
08:34 AM 65.3°F18.5°C 54.0°F12.2°C 67% - N16091.8 kmh N -- 29.75 in1007.5 mb 0.00 in0.0 mm 0.00 in/hr0.0 mm/hr 0.00 in0.0 mm
08:29 AM 65.1°F18.4°C 53.8°F12.1°C 67% - N16091.8 kmh N -- 29.75 in1007.5 mb 0.00 in0.0 mm 0.00 in/hr0.0 mm/hr 0.00 in0.0 mm
08:24 AM 64.9°F18.3°C 53.7°F12.1°C 67% - N16091.8 kmh N -- 29.75 in1007.5 mb 0.00 in0.0 mm 0.00 in/hr0.0 mm/hr 0.00 in0.0 mm
08:19 AM 64.7°F18.2°C 53.5°F11.9°C 67% - N16091.8 kmh N -- 29.75 in1007.5 mb 0.00 in0.0 mm 0.00 in/hr0.0 mm/hr 0.00 in0.0 mm
08:14 AM 64.5°F18.1°C 53.3°F11.8°C 67% - N16091.8 kmh N -- 29.74 in1007.1 mb 0.00 in0.0 mm 0.00 in/hr0.0 mm/hr 0.00 in0.0 mm
08:09 AM 64.2°F17.9°C 53.0°F11.7°C 67% - N16091.8 kmh N -- 29.74 in1007.1 mb 0.00 in0.0 mm 0.00 in/hr0.0 mm/hr 0.00 in0.0 mm
08:04 AM 64.0°F17.8°C 52.4°F11.3°C 66% - N16091.8 kmh N -- 29.74 in1007.1 mb 0.00 in0.0 mm 0.00 in/hr0.0 mm/hr 0.00 in0.0 mm
07:59 AM 63.8°F17.7°C 52.2°F11.2°C 66% - N16091.8 kmh N -- 29.74 in1007.1 mb 0.00 in0.0 mm 0.00 in/hr0.0 mm/hr 0.00 in0.0 mm
07:54 AM 63.5°F17.5°C 51.9°F11.1°C 66% - N16091.8 kmh N -- 29.74 in1007.1 mb 0.00 in0.0 mm 0.00 in/hr0.0 mm/hr 0.00 in0.0 mm
07:49 AM 63.3°F17.4°C 51.7°F10.9°C 66% - N16091.8 kmh N -- 29.74 in1007.1 mb 0.00 in0.0 mm 0.00 in/hr0.0 mm/hr 0.00 in0.0 mm
07:44 AM 63.1°F17.3°C 51.5°F10.8°C 66% - N16091.8 kmh N -- 29.74 in1007.1 mb 0.00 in0.0 mm 0.00 in/hr0.0 mm/hr 0.00 in0.0 mm
07:39 AM 63.1°F17.3°C 51.5°F10.8°C 66% - N16091.8 kmh N -- 29.74 in1007.1 mb 0.00 in0.0 mm 0.00 in/hr0.0 mm/hr 0.00 in0.0 mm
07:34 AM 62.9°F17.2°C 51.3°F10.7°C 66% - N16091.8 kmh N -- 29.74 in1007.1 mb 0.00 in0.0 mm 0.00 in/hr0.0 mm/hr 0.00 in0.0 mm
07:29 AM 62.7°F17.1°C 51.2°F10.7°C 66% - N16091.8 kmh N -- 29.74 in1007.1 mb 0.00 in0.0 mm 0.00 in/hr0.0 mm/hr 0.00 in0.0 mm
07:24 AM 62.4°F16.9°C 50.4°F10.2°C 66% - N16091.8 kmh N -- 29.74 in1007.1 mb 0.00 in0.0 mm 0.00 in/hr0.0 mm/hr 0.00 in0.0 mm
07:19 AM 62.4°F16.9°C 50.4°F10.2°C 66% - N16091.8 kmh N -- 29.74 in1007.1 mb 0.00 in0.0 mm 0.00 in/hr0.0 mm/hr 0.00 in0.0 mm
07:14 AM 62.4°F16.9°C 50.4°F10.2°C 66% - N16091.8 kmh N -- 29.74 in1007.1 mb 0.00 in0.0 mm 0.00 in/hr0.0 mm/hr 0.00 in0.0 mm
07:09 AM 62.4°F16.9°C 50.4°F10.2°C 66% - N16091.8 kmh N -- 29.74 in1007.1 mb 0.00 in0.0 mm 0.00 in/hr0.0 mm/hr 0.00 in0.0 mm
07:04 AM 62.4°F16.9°C 50.4°F10.2°C 65% - N16091.8 kmh N -- 29.74 in1007.1 mb 0.00 in0.0 mm 0.00 in/hr0.0 mm/hr 0.00 in0.0 mm
06:59 AM 62.4°F16.9°C 50.4°F10.2°C 65% - N16091.8 kmh N -- 29.74 in1007.1 mb 0.00 in0.0 mm 0.00 in/hr0.0 mm/hr 0.00 in0.0 mm
06:54 AM 62.4°F16.9°C 50.4°F10.2°C 65% - N16091.8 kmh N -- 29.74 in1007.1 mb 0.00 in0.0 mm 0.00 in/hr0.0 mm/hr 0.00 in0.0 mm
06:49 AM 62.6°F17.0°C 50.6°F10.3°C 65% - N16091.8 kmh N -- 29.74 in1007.1 mb 0.00 in0.0 mm 0.00 in/hr0.0 mm/hr 0.00 in0.0 mm
06:44 AM 62.4°F16.9°C 50.4°F10.2°C 65% - N16091.8 kmh N -- 29.74 in1007.1 mb 0.00 in0.0 mm 0.00 in/hr0.0 mm/hr 0.00 in0.0 mm
06:38 AM 62.6°F17.0°C 50.6°F10.3°C 65% - N16091.8 kmh N -- 29.74 in1007.1 mb 0.00 in0.0 mm 0.00 in/hr0.0 mm/hr 0.00 in0.0 mm
06:33 AM 62.6°F17.0°C 50.6°F10.3°C 65% - N16091.8 kmh N -- 29.74 in1007.1 mb 0.00 in0.0 mm 0.00 in/hr0.0 mm/hr 0.00 in0.0 mm
06:28 AM 62.6°F17.0°C 50.6°F10.3°C 65% - N16091.8 kmh N -- 29.74 in1007.1 mb 0.00 in0.0 mm 0.00 in/hr0.0 mm/hr 0.00 in0.0 mm
06:23 AM 62.7°F17.1°C 50.3°F10.2°C 64% - N16091.8 kmh N -- 29.74 in1007.1 mb 0.00 in0.0 mm 0.00 in/hr0.0 mm/hr 0.00 in0.0 mm
06:18 AM 62.7°F17.1°C 50.3°F10.2°C 64% - N16091.8 kmh N -- 29.74 in1007.1 mb 0.00 in0.0 mm 0.00 in/hr0.0 mm/hr 0.00 in0.0 mm
06:13 AM 62.7°F17.1°C 50.3°F10.2°C 64% - N16091.8 kmh N -- 29.74 in1007.1 mb 0.00 in0.0 mm 0.00 in/hr0.0 mm/hr 0.00 in0.0 mm
06:08 AM 63.1°F17.3°C 50.7°F10.4°C 64% - N16091.8 kmh N -- 29.74 in1007.1 mb 0.00 in0.0 mm 0.00 in/hr0.0 mm/hr 0.00 in0.0 mm
06:03 AM 63.5°F17.5°C 51.0°F10.6°C 64% - N16091.8 kmh N -- 29.74 in1007.1 mb 0.00 in0.0 mm 0.00 in/hr0.0 mm/hr 0.00 in0.0 mm
05:58 AM 63.5°F17.5°C 51.0°F10.6°C 64% - N16091.8 kmh N -- 29.73 in1006.8 mb 0.00 in0.0 mm 0.00 in/hr0.0 mm/hr 0.00 in0.0 mm
05:53 AM 64.0°F17.8°C 51.1°F10.6°C 64% - N16091.8 kmh N -- 29.73 in1006.8 mb 0.00 in0.0 mm 0.00 in/hr0.0 mm/hr 0.00 in0.0 mm
05:48 AM 64.0°F17.8°C 51.1°F10.6°C 63% - N16091.8 kmh N -- 29.73 in1006.8 mb 0.00 in0.0 mm 0.00 in/hr0.0 mm/hr 0.00 in0.0 mm
05:43 AM 64.0°F17.8°C 51.1°F10.6°C 63% - N16091.8 kmh N -- 29.73 in1006.8 mb 0.00 in0.0 mm 0.00 in/hr0.0 mm/hr 0.00 in0.0 mm
05:38 AM 64.0°F17.8°C 51.1°F10.6°C 63% - N16091.8 kmh N -- 29.74 in1007.1 mb 0.00 in0.0 mm 0.00 in/hr0.0 mm/hr 0.00 in0.0 mm
05:33 AM 64.2°F17.9°C 50.8°F10.4°C 63% - N16091.8 kmh N -- 29.74 in1007.1 mb 0.00 in0.0 mm 0.00 in/hr0.0 mm/hr 0.00 in0.0 mm
05:28 AM 64.2°F17.9°C 50.8°F10.4°C 62% - N16091.8 kmh N -- 29.73 in1006.8 mb 0.00 in0.0 mm 0.00 in/hr0.0 mm/hr 0.00 in0.0 mm
05:23 AM 64.2°F17.9°C 50.8°F10.4°C 62% - N16091.8 kmh N -- 29.73 in1006.8 mb 0.00 in0.0 mm 0.00 in/hr0.0 mm/hr 0.00 in0.0 mm
05:18 AM 64.4°F18.0°C 51.0°F10.6°C 62% - N16091.8 kmh N -- 29.73 in1006.8 mb 0.00 in0.0 mm 0.00 in/hr0.0 mm/hr 0.00 in0.0 mm
05:13 AM 64.5°F18.1°C 50.7°F10.4°C 62% - N16091.8 kmh N -- 29.73 in1006.8 mb 0.00 in0.0 mm 0.00 in/hr0.0 mm/hr 0.00 in0.0 mm
05:08 AM 64.7°F18.2°C 50.9°F10.5°C 61% - N16091.8 kmh N -- 29.73 in1006.8 mb 0.00 in0.0 mm 0.00 in/hr0.0 mm/hr 0.00 in0.0 mm
05:03 AM 64.9°F18.3°C 51.1°F10.6°C 61% - N16091.8 kmh N -- 29.73 in1006.8 mb 0.00 in0.0 mm 0.00 in/hr0.0 mm/hr 0.00 in0.0 mm
04:58 AM 65.1°F18.4°C 51.3°F10.7°C 61% - N16091.8 kmh N -- 29.73 in1006.8 mb 0.00 in0.0 mm 0.00 in/hr0.0 mm/hr 0.00 in0.0 mm
04:53 AM 65.3°F18.5°C 51.5°F10.8°C 61% - N16091.8 kmh N -- 29.73 in1006.8 mb 0.00 in0.0 mm 0.00 in/hr0.0 mm/hr 0.00 in0.0 mm
04:48 AM 65.4°F18.6°C 51.2°F10.7°C 61% - N16091.8 kmh N -- 29.72 in1006.4 mb 0.00 in0.0 mm 0.00 in/hr0.0 mm/hr 0.00 in0.0 mm
04:43 AM 65.4°F18.6°C 51.2°F10.7°C 60% - N16091.8 kmh N -- 29.73 in1006.8 mb 0.00 in0.0 mm 0.00 in/hr0.0 mm/hr 0.00 in0.0 mm
04:38 AM 65.8°F18.8°C 51.6°F10.9°C 60% - N16091.8 kmh N -- 29.72 in1006.4 mb 0.00 in0.0 mm 0.00 in/hr0.0 mm/hr 0.00 in0.0 mm
04:33 AM 65.8°F18.8°C 51.6°F10.9°C 60% - N16091.8 kmh N -- 29.72 in1006.4 mb 0.00 in0.0 mm 0.00 in/hr0.0 mm/hr 0.00 in0.0 mm
04:28 AM 65.8°F18.8°C 51.6°F10.9°C 60% - N16091.8 kmh N -- 29.72 in1006.4 mb 0.00 in0.0 mm 0.00 in/hr0.0 mm/hr 0.00 in0.0 mm
04:23 AM 66.0°F18.9°C 51.8°F11.0°C 60% - N16091.8 kmh N -- 29.72 in1006.4 mb 0.00 in0.0 mm 0.00 in/hr0.0 mm/hr 0.00 in0.0 mm
04:18 AM 66.0°F18.9°C 51.8°F11.0°C 60% - N16091.8 kmh N -- 29.72 in1006.4 mb 0.00 in0.0 mm 0.00 in/hr0.0 mm/hr 0.00 in0.0 mm
04:13 AM 66.2°F19.0°C 51.9°F11.1°C 60% - N16091.8 kmh N -- 29.72 in1006.4 mb 0.00 in0.0 mm 0.00 in/hr0.0 mm/hr 0.00 in0.0 mm
04:08 AM 66.3°F19.1°C 52.1°F11.2°C 60% - N16091.8 kmh N -- 29.72 in1006.4 mb 0.00 in0.0 mm 0.00 in/hr0.0 mm/hr 0.00 in0.0 mm
04:03 AM 66.5°F19.2°C 51.8°F11.0°C 59% - N16091.8 kmh N -- 29.72 in1006.4 mb 0.00 in0.0 mm 0.00 in/hr0.0 mm/hr 0.00 in0.0 mm
03:58 AM 66.7°F19.3°C 51.9°F11.1°C 59% - N16091.8 kmh N -- 29.72 in1006.4 mb 0.00 in0.0 mm 0.00 in/hr0.0 mm/hr 0.00 in0.0 mm
03:53 AM 66.7°F19.3°C 51.9°F11.1°C 59% - N16091.8 kmh N -- 29.72 in1006.4 mb 0.00 in0.0 mm 0.00 in/hr0.0 mm/hr 0.00 in0.0 mm
03:48 AM 66.7°F19.3°C 51.9°F11.1°C 59% - N16091.8 kmh N -- 29.72 in1006.4 mb 0.00 in0.0 mm 0.00 in/hr0.0 mm/hr 0.00 in0.0 mm
03:43 AM 66.9°F19.4°C 52.1°F11.2°C 59% - N16091.8 kmh N -- 29.72 in1006.4 mb 0.00 in0.0 mm 0.00 in/hr0.0 mm/hr 0.00 in0.0 mm
03:38 AM 66.9°F19.4°C 52.1°F11.2°C 59% - N16091.8 kmh N -- 29.72 in1006.4 mb 0.00 in0.0 mm 0.00 in/hr0.0 mm/hr 0.00 in0.0 mm
03:33 AM 66.9°F19.4°C 52.1°F11.2°C 59% - N16091.8 kmh N -- 29.72 in1006.4 mb 0.00 in0.0 mm 0.00 in/hr0.0 mm/hr 0.00 in0.0 mm
03:28 AM 67.1°F19.5°C 52.3°F11.3°C 59% - N16091.8 kmh N -- 29.72 in1006.4 mb 0.00 in0.0 mm 0.00 in/hr0.0 mm/hr 0.00 in0.0 mm
03:23 AM 67.1°F19.5°C 52.3°F11.3°C 59% - N16091.8 kmh N -- 29.72 in1006.4 mb 0.00 in0.0 mm 0.00 in/hr0.0 mm/hr 0.00 in0.0 mm
03:18 AM 67.2°F19.6°C 51.9°F11.1°C 59% - N16091.8 kmh N -- 29.72 in1006.4 mb 0.00 in0.0 mm 0.00 in/hr0.0 mm/hr 0.00 in0.0 mm
03:13 AM 67.2°F19.6°C 51.9°F11.1°C 58% - N16091.8 kmh N -- 29.73 in1006.8 mb 0.00 in0.0 mm 0.00 in/hr0.0 mm/hr 0.00 in0.0 mm
03:08 AM 67.2°F19.6°C 51.9°F11.1°C 58% - N16091.8 kmh N -- 29.72 in1006.4 mb 0.00 in0.0 mm 0.00 in/hr0.0 mm/hr 0.00 in0.0 mm
03:03 AM 67.4°F19.7°C 52.1°F11.2°C 58% - N16091.8 kmh N -- 29.73 in1006.8 mb 0.00 in0.0 mm 0.00 in/hr0.0 mm/hr 0.00 in0.0 mm
02:58 AM 67.4°F19.7°C 52.1°F11.2°C 58% - N16091.8 kmh N -- 29.73 in1006.8 mb 0.00 in0.0 mm 0.00 in/hr0.0 mm/hr 0.00 in0.0 mm
02:53 AM 67.6°F19.8°C 52.3°F11.3°C 58% - N16091.8 kmh N -- 29.73 in1006.8 mb 0.00 in0.0 mm 0.00 in/hr0.0 mm/hr 0.00 in0.0 mm
02:48 AM 67.8°F19.9°C 52.4°F11.3°C 58% - N16091.8 kmh N -- 29.73 in1006.8 mb 0.00 in0.0 mm 0.00 in/hr0.0 mm/hr 0.00 in0.0 mm
02:43 AM 67.8°F19.9°C 52.4°F11.3°C 58% - N16091.8 kmh N -- 29.73 in1006.8 mb 0.00 in0.0 mm 0.00 in/hr0.0 mm/hr 0.00 in0.0 mm
02:38 AM 68.1°F20.1°C 52.8°F11.6°C 58% - N16091.8 kmh N -- 29.73 in1006.8 mb 0.00 in0.0 mm 0.00 in/hr0.0 mm/hr 0.00 in0.0 mm
02:32 AM 68.5°F20.3°C 52.6°F11.4°C 57% - N16091.8 kmh N -- 29.73 in1006.8 mb 0.00 in0.0 mm 0.00 in/hr0.0 mm/hr 0.00 in0.0 mm
02:27 AM 68.7°F20.4°C 52.8°F11.6°C 57% - N16091.8 kmh N -- 29.74 in1007.1 mb 0.00 in0.0 mm 0.00 in/hr0.0 mm/hr 0.00 in0.0 mm
02:23 AM 68.9°F20.5°C 53.0°F11.7°C 57% - N16091.8 kmh N -- 29.74 in1007.1 mb 0.00 in0.0 mm 0.00 in/hr0.0 mm/hr 0.00 in0.0 mm
02:18 AM 69.4°F20.8°C 53.0°F11.7°C 56% - N16091.8 kmh N -- 29.74 in1007.1 mb 0.00 in0.0 mm 0.00 in/hr0.0 mm/hr 0.00 in0.0 mm
02:12 AM 69.4°F20.8°C 53.0°F11.7°C 56% - N16091.8 kmh N -- 29.74 in1007.1 mb 0.00 in0.0 mm 0.00 in/hr0.0 mm/hr 0.00 in0.0 mm
02:07 AM 69.4°F20.8°C 53.0°F11.7°C 56% - N16091.8 kmh N -- 29.74 in1007.1 mb 0.00 in0.0 mm 0.00 in/hr0.0 mm/hr 0.00 in0.0 mm
02:02 AM 69.6°F20.9°C 53.2°F11.8°C 56% - N16091.8 kmh N -- 29.74 in1007.1 mb 0.00 in0.0 mm 0.00 in/hr0.0 mm/hr 0.00 in0.0 mm
01:57 AM 69.8°F21.0°C 53.3°F11.8°C 56% - N16091.8 kmh N -- 29.74 in1007.1 mb 0.00 in0.0 mm 0.00 in/hr0.0 mm/hr 0.00 in0.0 mm
01:52 AM 69.9°F21.1°C 53.0°F11.7°C 55% - N16091.8 kmh N -- 29.74 in1007.1 mb 0.00 in0.0 mm 0.00 in/hr0.0 mm/hr 0.00 in0.0 mm
01:47 AM 70.1°F21.2°C 53.2°F11.8°C 55% - N16091.8 kmh N -- 29.74 in1007.1 mb 0.00 in0.0 mm 0.00 in/hr0.0 mm/hr 0.00 in0.0 mm
01:42 AM 70.1°F21.2°C 53.2°F11.8°C 55% - N16091.8 kmh N -- 29.75 in1007.5 mb 0.00 in0.0 mm 0.00 in/hr0.0 mm/hr 0.00 in0.0 mm
01:37 AM 70.3°F21.3°C 53.3°F11.8°C 55% - N16091.8 kmh N -- 29.74 in1007.1 mb 0.00 in0.0 mm 0.00 in/hr0.0 mm/hr 0.00 in0.0 mm
01:32 AM 70.3°F21.3°C 53.3°F11.8°C 55% - N16091.8 kmh N -- 29.74 in1007.1 mb 0.00 in0.0 mm 0.00 in/hr0.0 mm/hr 0.00 in0.0 mm
01:27 AM 70.5°F21.4°C 53.5°F11.9°C 55% - N16091.8 kmh N -- 29.74 in1007.1 mb 0.00 in0.0 mm 0.00 in/hr0.0 mm/hr 0.00 in0.0 mm
01:22 AM 70.5°F21.4°C 53.5°F11.9°C 55% - N16091.8 kmh N -- 29.74 in1007.1 mb 0.00 in0.0 mm 0.00 in/hr0.0 mm/hr 0.00 in0.0 mm
01:17 AM 70.3°F21.3°C 53.3°F11.8°C 55% - N16091.8 kmh N -- 29.75 in1007.5 mb 0.00 in0.0 mm 0.00 in/hr0.0 mm/hr 0.00 in0.0 mm
01:12 AM 70.5°F21.4°C 53.5°F11.9°C 55% - N16091.8 kmh N -- 29.74 in1007.1 mb 0.00 in0.0 mm 0.00 in/hr0.0 mm/hr 0.00 in0.0 mm
01:07 AM 70.5°F21.4°C 53.5°F11.9°C 55% - N16091.8 kmh N -- 29.74 in1007.1 mb 0.00 in0.0 mm 0.00 in/hr0.0 mm/hr 0.00 in0.0 mm
01:02 AM 70.5°F21.4°C 53.5°F11.9°C 55% - N16091.8 kmh N -- 29.74 in1007.1 mb 0.00 in0.0 mm 0.00 in/hr0.0 mm/hr 0.00 in0.0 mm
12:57 AM 70.5°F21.4°C 53.5°F11.9°C 55% - N16091.8 kmh N -- 29.74 in1007.1 mb 0.00 in0.0 mm 0.00 in/hr0.0 mm/hr 0.00 in0.0 mm
12:52 AM 70.5°F21.4°C 53.5°F11.9°C 55% - N16091.8 kmh N -- 29.74 in1007.1 mb 0.00 in0.0 mm 0.00 in/hr0.0 mm/hr 0.00 in0.0 mm
12:47 AM 70.5°F21.4°C 53.5°F11.9°C 55% - N16091.8 kmh N -- 29.74 in1007.1 mb 0.00 in0.0 mm 0.00 in/hr0.0 mm/hr 0.00 in0.0 mm
12:42 AM 70.5°F21.4°C 53.5°F11.9°C 55% - N16091.8 kmh N -- 29.75 in1007.5 mb 0.00 in0.0 mm 0.00 in/hr0.0 mm/hr 0.00 in0.0 mm
12:37 AM 70.7°F21.5°C 53.6°F12.0°C 55% - N16091.8 kmh N -- 29.74 in1007.1 mb 0.00 in0.0 mm 0.00 in/hr0.0 mm/hr 0.00 in0.0 mm
12:32 AM 70.8°F21.6°C 53.8°F12.1°C 55% - N16091.8 kmh N -- 29.74 in1007.1 mb 0.00 in0.0 mm 0.00 in/hr0.0 mm/hr 0.00 in0.0 mm
12:27 AM 70.8°F21.6°C 53.8°F12.1°C 55% - N16091.8 kmh N -- 29.74 in1007.1 mb 0.00 in0.0 mm 0.00 in/hr0.0 mm/hr 0.00 in0.0 mm
12:22 AM 71.0°F21.7°C 54.0°F12.2°C 55% - N16091.8 kmh N -- 29.74 in1007.1 mb 0.00 in0.0 mm 0.00 in/hr0.0 mm/hr 0.00 in0.0 mm
12:17 AM 71.2°F21.8°C 53.6°F12.0°C 55% - N16091.8 kmh N -- 29.74 in1007.1 mb 0.00 in0.0 mm 0.00 in/hr0.0 mm/hr 0.00 in0.0 mm
12:12 AM 71.2°F21.8°C 53.6°F12.0°C 54% - N16091.8 kmh N -- 29.74 in1007.1 mb 0.00 in0.0 mm 0.00 in/hr0.0 mm/hr 0.00 in0.0 mm
12:07 AM 71.4°F21.9°C 53.8°F12.1°C 54% - N16091.8 kmh N -- 29.74 in1007.1 mb 0.00 in0.0 mm 0.00 in/hr0.0 mm/hr 0.00 in0.0 mm
12:02 AM 71.6°F22.0°C 53.9°F12.2°C 54% - N16091.8 kmh N -- 29.74 in1007.1 mb 0.00 in0.0 mm 0.00 in/hr0.0 mm/hr 0.00 in0.0 mm